Lac-Bouchette, Canada
Current Conditions -  °F | °C
As of 12:28 PM on Sunday 23 Nov 2014 (Local Time) from CYRJ Reporting Station
Snow Showers Snow Showers  
Wind Chill: 30°   Ceiling: 10000
Heat Index: 30°   Visibility: 40mi
Dew Point: 23°   Wind: 3mph
Humidity: 75%   Direction: 80°E
Pressure: 29.97"   Gusts: NA
Location:  48.27°N, 72.17°W
Report Text: CYRJ 231728Z 08003KT 030V120 40SM -SHSN SCT030 OVC100 M01/M05 A2997 RMK SC3AC5 SLP158
Loading
Personal Weather Stations






























Interactive Weather Map New forecast layout! Learn more

10-Day Weather Forecast

Advertisements
Track Severe Weather on mobile